Time;durP1;ratioP1;P1;durP2;ratioP2;P2;SDS_P1;SDS_P2;PMS_P1;PMS_P2;Temp;Humidity;BMP_temperature;BMP_pressure;BME280_temperature;BME280_humidity;BME280_pressure;Samples;Min_cycle;Max_cycle;Signal;HPM_P1;HPM_P2
2021/09/19 00:00:40;;;;;;;9.73;5.22;;;;;;;13.84;100.00;98232.00;1645873;86;20942;-68
2021/09/19 00:03:09;;;;;;;8.78;3.70;;;;;;;13.79;100.00;98234.41;1658249;85;21592;-67
2021/09/19 00:05:37;;;;;;;5.03;3.00;;;;;;;13.74;100.00;98242.97;1640282;85;21470;-67
2021/09/19 00:08:06;;;;;;;6.53;3.33;;;;;;;13.71;100.00;98246.55;1637678;86;21453;-66
2021/09/19 00:10:34;;;;;;;7.20;2.42;;;;;;;13.64;100.00;98242.38;1632102;88;20989;-66
2021/09/19 00:13:03;;;;;;;5.95;2.92;;;;;;;13.57;100.00;98238.20;1624357;86;21455;-66
2021/09/19 00:15:33;;;;;;;4.85;2.90;;;;;;;13.53;100.00;98240.53;1577306;89;21148;-66
2021/09/19 00:18:03;;;;;;;4.75;2.40;;;;;;;13.50;100.00;98237.53;1601616;89;21464;-66
2021/09/19 00:20:33;;;;;;;6.42;2.27;;;;;;;13.46;100.00;98233.25;1602428;87;21457;-66
2021/09/19 00:23:02;;;;;;;3.17;2.50;;;;;;;13.45;100.00;98232.84;1602727;87;21532;-66
2021/09/19 00:25:31;;;;;;;3.20;2.45;;;;;;;13.46;100.00;98239.87;1602913;87;21445;-66
2021/09/19 00:27:59;;;;;;;3.50;2.60;;;;;;;13.44;100.00;98235.54;1602536;87;21502;-66
2021/09/19 00:30:30;;;;;;;2.98;2.42;;;;;;;13.39;100.00;98231.71;1603628;88;21465;-67
2021/09/19 00:33:00;;;;;;;3.83;2.67;;;;;;;13.35;100.00;98238.02;1626416;86;21024;-67
2021/09/19 00:35:29;;;;;;;5.42;2.30;;;;;;;13.34;100.00;98234.09;1644001;86;20948;-67
2021/09/19 00:37:58;;;;;;;2.65;2.35;;;;;;;13.35;100.00;98236.70;1643895;86;21471;-66
2021/09/19 00:40:26;;;;;;;5.25;2.50;;;;;;;13.36;100.00;98240.22;1623991;86;21966;-66
2021/09/19 00:42:54;;;;;;;2.95;2.15;;;;;;;13.36;100.00;98236.23;1634066;86;21533;-66
2021/09/19 00:45:24;;;;;;;2.40;2.20;;;;;;;13.37;100.00;98234.87;1662438;85;21030;-66
2021/09/19 00:47:52;;;;;;;2.67;2.20;;;;;;;13.38;100.00;98238.38;1659942;85;21094;-66
2021/09/19 00:50:24;;;;;;;2.80;2.20;;;;;;;13.40;100.00;98239.20;1660353;85;21494;-66
2021/09/19 00:52:52;;;;;;;4.00;2.30;;;;;;;13.43;100.00;98233.80;1661841;85;21101;-68
2021/09/19 00:55:20;;;;;;;3.50;2.55;;;;;;;13.44;100.00;98227.59;1643801;85;20944;-66
2021/09/19 00:57:52;;;;;;;3.20;2.90;;;;;;;13.44;100.00;98226.27;1649946;85;20976;-66
2021/09/19 01:00:25;;;;;;;2.85;2.40;;;;;;;13.46;100.00;98228.41;1647693;86;21761;-67
2021/09/19 01:02:54;;;;;;;3.67;2.45;;;;;;;13.44;100.00;98227.59;1648587;85;21554;-67
2021/09/19 01:05:23;;;;;;;2.30;2.10;;;;;;;13.44;100.00;98228.91;1654095;85;21095;-66
2021/09/19 01:07:51;;;;;;;2.83;2.08;;;;;;;13.47;100.00;98238.09;1652827;85;20896;-66
2021/09/19 01:10:22;;;;;;;2.55;2.30;;;;;;;13.46;100.00;98228.41;1652299;85;21011;-67
2021/09/19 01:12:53;;;;;;;4.47;2.37;;;;;;;13.46;100.00;98222.65;1652931;85;26001;-67
2021/09/19 01:15:23;;;;;;;2.87;2.37;;;;;;;13.48;100.00;98232.73;1644504;86;21684;-67
2021/09/19 01:17:53;;;;;;;2.80;2.15;;;;;;;13.49;100.00;98228.30;1649033;86;21432;-66
2021/09/19 01:20:21;;;;;;;3.40;2.25;;;;;;;13.52;100.00;98217.61;1653255;86;21416;-66
2021/09/19 01:23:09;;;;;;;4.05;2.40;;;;;;;13.57;100.00;98222.76;1650217;86;20872;-66
2021/09/19 01:25:36;;;;;;;2.40;2.20;;;;;;;13.59;100.00;98225.77;1614071;88;21478;-66
2021/09/19 01:28:06;;;;;;;2.35;2.15;;;;;;;13.57;100.00;98219.65;1646298;85;21488;-66
2021/09/19 01:30:36;;;;;;;4.45;2.45;;;;;;;13.56;100.00;98220.56;1647700;86;21073;-66
2021/09/19 01:33:04;;;;;;;2.37;2.17;;;;;;;13.53;100.00;98218.02;1650418;86;20876;-67
2021/09/19 01:35:32;;;;;;;4.12;2.33;;;;;;;13.56;100.00;98229.84;1648706;85;20988;-68
2021/09/19 01:38:00;;;;;;;3.90;2.50;;;;;;;13.56;100.00;98229.84;1645413;86;20980;-67
2021/09/19 01:40:28;;;;;;;2.40;2.15;;;;;;;13.57;100.00;98221.43;1644793;86;21044;-66
2021/09/19 01:42:56;;;;;;;3.83;2.60;;;;;;;13.54;100.00;98228.56;1645368;86;21086;-66
2021/09/19 01:45:24;;;;;;;2.50;2.30;;;;;;;13.54;100.00;98224.59;1644572;86;20984;-66
2021/09/19 01:47:53;;;;;;;2.77;2.20;;;;;;;13.53;100.00;98220.20;1652230;86;20928;-67
2021/09/19 01:50:23;;;;;;;2.40;2.20;;;;;;;13.52;100.00;98215.83;1652318;85;20892;-67
2021/09/19 01:52:53;;;;;;;3.25;2.30;;;;;;;13.55;100.00;98217.51;1652305;86;21454;-67
2021/09/19 01:55:22;;;;;;;2.58;2.37;;;;;;;13.53;100.00;98220.66;1651669;86;21444;-66
2021/09/19 01:57:50;;;;;;;3.22;2.90;;;;;;;13.50;100.00;98219.44;1639771;86;20958;-67
2021/09/19 02:00:20;;;;;;;2.85;2.65;;;;;;;13.45;100.00;98223.56;1637071;86;20937;-67
2021/09/19 02:02:48;;;;;;;2.95;2.60;;;;;;;13.42;100.00;98222.80;1624763;86;20947;-67
2021/09/19 02:05:16;;;;;;;3.85;2.45;;;;;;;13.39;100.00;98218.92;1628829;86;21472;-67
2021/09/19 02:07:44;;;;;;;4.50;2.45;;;;;;;13.38;100.00;98218.06;1661768;85;21092;-67
2021/09/19 02:10:14;;;;;;;2.77;2.55;;;;;;;13.40;100.00;98210.06;1644720;86;20897;-67
2021/09/19 02:12:43;;;;;;;4.55;3.05;;;;;;;13.39;100.00;98207.00;1641839;87;20984;-66
2021/09/19 02:15:13;;;;;;;2.60;2.40;;;;;;;13.37;100.00;98210.16;1659675;86;21428;-67
2021/09/19 02:17:41;;;;;;;5.80;3.15;;;;;;;13.31;100.00;98210.36;1656906;85;21451;-67
2021/09/19 02:20:13;;;;;;;2.72;2.50;;;;;;;13.23;100.00;98209.25;1631673;86;21510;-67
2021/09/19 02:22:40;;;;;;;3.70;2.80;;;;;;;13.17;100.00;98214.73;1647331;87;21480;-67
2021/09/19 02:25:10;;;;;;;2.70;2.47;;;;;;;13.12;100.00;98212.66;1651573;85;21453;-67
2021/09/19 02:27:38;;;;;;;3.12;2.65;;;;;;;13.05;100.00;98210.66;1650885;85;21445;-67
2021/09/19 02:30:12;;;;;;;3.83;2.95;;;;;;;12.97;100.00;98201.22;1655461;85;21422;-67
2021/09/19 02:32:39;;;;;;;4.10;2.80;;;;;;;12.86;100.00;98215.66;1669649;85;21106;-68
2021/09/19 02:35:08;;;;;;;4.67;2.83;;;;;;;12.80;100.00;98213.19;1667695;85;20888;-67
2021/09/19 02:37:38;;;;;;;3.22;2.70;;;;;;;12.75;100.00;98213.75;1661489;85;21447;-68
2021/09/19 02:40:08;;;;;;;2.75;2.52;;;;;;;12.72;100.00;98219.59;1660685;85;20929;-67
2021/09/19 02:42:37;;;;;;;4.78;3.35;;;;;;;12.72;100.00;98212.52;1650809;85;21472;-65
2021/09/19 02:45:07;;;;;;;3.37;2.90;;;;;;;12.74;100.00;98217.31;1652766;85;21474;-69
2021/09/19 02:47:36;;;;;;;3.08;2.45;;;;;;;12.73;100.00;98217.36;1639168;86;21445;-67
2021/09/19 02:50:04;;;;;;;3.42;2.95;;;;;;;12.72;100.00;98218.27;1638303;86;21557;-69
2021/09/19 02:52:35;;;;;;;3.35;2.65;;;;;;;12.71;100.00;98210.79;1644307;85;21565;-68
2021/09/19 02:55:03;;;;;;;3.30;2.98;;;;;;;12.70;100.00;98218.31;1644239;86;20995;-68
2021/09/19 02:57:33;;;;;;;3.05;2.75;;;;;;;12.72;100.00;98211.20;1634569;86;21636;-68
2021/09/19 03:00:01;;;;;;;4.12;3.12;;;;;;;12.73;100.00;98211.61;1633611;87;21482;-67
2021/09/19 03:02:28;;;;;;;3.08;2.77;;;;;;;12.73;100.00;98209.42;1633989;86;20899;-68
2021/09/19 03:04:56;;;;;;;3.55;2.62;;;;;;;12.71;100.00;98212.56;1655296;85;20861;-67
2021/09/19 03:07:23;;;;;;;3.85;2.87;;;;;;;12.67;100.00;98211.80;1664767;86;20892;-68
2021/09/19 03:09:52;;;;;;;3.20;2.90;;;;;;;12.63;100.00;98203.98;1664157;86;21750;-68
2021/09/19 03:12:21;;;;;;;7.97;3.15;;;;;;;12.60;100.00;98210.23;1649918;86;21510;-68
2021/09/19 03:14:51;;;;;;;3.52;3.22;;;;;;;12.60;100.00;98208.45;1630618;86;21468;-68
2021/09/19 03:17:19;;;;;;;3.50;2.87;;;;;;;12.58;100.00;98202.80;1631631;86;21459;-68
2021/09/19 03:19:49;;;;;;;3.60;3.20;;;;;;;12.55;100.00;98211.70;1666077;84;21443;-68
2021/09/19 03:22:18;;;;;;;3.95;3.50;;;;;;;12.52;100.00;98210.92;1665848;84;21117;-68
2021/09/19 03:24:48;;;;;;;3.83;3.42;;;;;;;12.48;100.00;98211.92;1662970;84;21439;-69
2021/09/19 03:27:17;;;;;;;3.60;3.30;;;;;;;12.45;100.00;98210.69;1662750;85;21487;-69
2021/09/19 03:29:46;;;;;;;3.60;3.30;;;;;;;12.44;100.00;98215.11;1664960;86;21415;-69
2021/09/19 03:32:14;;;;;;;3.92;3.50;;;;;;;12.45;100.00;98216.84;1661388;84;20915;-68
2021/09/19 03:34:42;;;;;;;3.62;3.33;;;;;;;12.44;100.00;98214.23;1656699;85;21092;-68
2021/09/19 03:37:12;;;;;;;3.72;3.40;;;;;;;12.39;100.00;98220.98;1650151;86;20857;-68
2021/09/19 03:39:42;;;;;;;6.85;3.60;;;;;;;12.34;100.00;98222.89;1659314;85;20927;-68
2021/09/19 03:42:11;;;;;;;4.55;3.80;;;;;;;12.31;100.00;98225.63;1662682;85;21509;-68
2021/09/19 03:44:39;;;;;;;4.47;3.20;;;;;;;12.25;100.00;98221.79;1665624;84;21525;-68
2021/09/19 03:47:07;;;;;;;5.40;3.65;;;;;;;12.22;100.00;98218.77;1665728;85;21922;-68
2021/09/19 03:49:34;;;;;;;7.33;3.70;;;;;;;12.22;100.00;98215.27;1665759;84;21522;-68
2021/09/19 03:52:02;;;;;;;5.60;3.47;;;;;;;12.20;100.00;98217.09;1665542;84;20967;-68
2021/09/19 03:54:33;;;;;;;4.95;3.50;;;;;;;12.19;100.00;98216.67;1664376;84;20932;-70
2021/09/19 03:57:02;;;;;;;7.37;3.40;;;;;;;12.16;100.00;98215.44;1662965;86;21416;-70
2021/09/19 03:59:31;;;;;;;4.25;3.35;;;;;;;12.13;100.00;98211.55;1641903;85;21486;-69
2021/09/19 04:01:59;;;;;;;4.83;3.87;;;;;;;12.14;100.00;98214.61;1664616;84;20837;-73
2021/09/19 04:04:27;;;;;;;5.95;3.42;;;;;;;12.14;100.00;98211.51;1647717;86;20893;-73
2021/09/19 04:06:56;;;;;;;4.83;4.10;;;;;;;12.12;100.00;98218.62;1645870;86;20890;-73
2021/09/19 04:09:24;;;;;;;4.42;3.77;;;;;;;12.11;100.00;98227.45;1648196;86;20929;-71
2021/09/19 04:11:55;;;;;;;4.35;3.65;;;;;;;12.10;100.00;98219.11;1647680;86;21468;-72
2021/09/19 04:14:24;;;;;;;4.47;3.70;;;;;;;12.13;100.00;98219.48;1645645;86;21529;-72
2021/09/19 04:16:52;;;;;;;5.62;4.90;;;;;;;12.14;100.00;98215.48;1628687;86;21449;-72
2021/09/19 04:19:22;;;;;;;4.62;3.90;;;;;;;12.16;100.00;98222.05;1624225;86;20987;-73
2021/09/19 04:21:51;;;;;;;4.03;3.52;;;;;;;12.15;100.00;98217.21;1625286;87;20915;-74
2021/09/19 04:24:20;;;;;;;5.30;4.17;;;;;;;12.17;100.00;98216.72;1630225;86;20918;-72
2021/09/19 04:26:49;;;;;;;5.33;4.00;;;;;;;12.22;100.00;98217.91;1633825;85;20881;-73
2021/09/19 04:29:18;;;;;;;4.80;4.28;;;;;;;12.24;100.00;98222.25;1646242;85;20981;-71
2021/09/19 04:31:47;;;;;;;4.87;4.37;;;;;;;12.25;100.00;98221.79;1624671;87;21472;-72
2021/09/19 04:34:14;;;;;;;4.65;4.25;;;;;;;12.24;100.00;98215.63;1624150;87;20971;-72
2021/09/19 04:36:44;;;;;;;4.37;3.98;;;;;;;12.25;100.00;98217.37;1624228;87;21028;-70
2021/09/19 04:39:11;;;;;;;7.75;4.47;;;;;;;12.31;100.00;98223.43;1625535;87;20943;-72
2021/09/19 04:41:41;;;;;;;5.35;4.20;;;;;;;12.33;100.00;98220.28;1626450;86;21327;-71
2021/09/19 04:44:10;;;;;;;6.62;4.80;;;;;;;12.34;100.00;98222.89;1624258;87;20864;-71
2021/09/19 04:46:40;;;;;;;5.40;4.25;;;;;;;12.37;100.00;98225.91;1634126;86;21442;-69
2021/09/19 04:49:07;;;;;;;5.33;4.17;;;;;;;12.39;100.00;98221.44;1627955;85;21106;-70
2021/09/19 04:51:36;;;;;;;4.60;4.20;;;;;;;12.43;100.00;98225.73;1626040;87;20979;-72
2021/09/19 04:54:06;;;;;;;5.28;4.70;;;;;;;12.44;100.00;98218.20;1624715;87;20964;-72
2021/09/19 04:56:33;;;;;;;6.17;4.58;;;;;;;12.43;100.00;98223.95;1624921;87;20967;-72
2021/09/19 04:59:03;;;;;;;5.37;4.55;;;;;;;12.41;100.00;98223.13;1626077;87;21484;-72
2021/09/19 05:01:31;;;;;;;4.80;4.30;;;;;;;12.42;100.00;98232.80;1616265;87;21175;-70
2021/09/19 05:04:00;;;;;;;4.92;4.45;;;;;;;12.47;100.00;98232.66;1653342;85;20907;-72
2021/09/19 05:06:27;;;;;;;5.42;4.92;;;;;;;12.48;100.00;98231.30;1639240;86;20892;-72
2021/09/19 05:08:57;;;;;;;6.00;5.20;;;;;;;12.49;100.00;98233.48;1625112;87;20920;-73
2021/09/19 05:11:24;;;;;;;6.72;4.95;;;;;;;12.47;100.00;98232.66;1641545;86;20968;-71
2021/09/19 05:13:58;;;;;;;5.65;4.70;;;;;;;12.48;100.00;98233.95;1642768;86;21106;-71
2021/09/19 05:16:27;;;;;;;6.10;4.87;;;;;;;12.53;100.00;98237.33;1643819;86;21464;-72
2021/09/19 05:18:58;;;;;;;6.40;5.20;;;;;;;12.59;100.00;98239.80;1628240;86;20932;-72
2021/09/19 05:21:27;;;;;;;6.33;5.58;;;;;;;12.61;100.00;98243.72;1625804;87;20943;-72
2021/09/19 05:23:56;;;;;;;6.95;5.45;;;;;;;12.63;100.00;98237.06;1602581;87;20922;-72
2021/09/19 05:26:26;;;;;;;8.10;5.15;;;;;;;12.65;100.00;98238.75;1602979;87;21468;-72
2021/09/19 05:28:58;;;;;;;6.15;5.55;;;;;;;12.71;100.00;98234.60;1602897;87;20965;-72
2021/09/19 05:31:26;;;;;;;5.92;5.33;;;;;;;12.78;100.00;98235.32;1579618;90;20928;-73
2021/09/19 05:33:54;;;;;;;7.03;5.80;;;;;;;12.82;100.00;98236.97;1568845;89;20960;-72
2021/09/19 05:36:22;;;;;;;7.20;5.58;;;;;;;12.86;100.00;98231.98;1662781;85;20935;-70
2021/09/19 05:38:50;;;;;;;9.45;5.42;;;;;;;12.90;100.00;98236.28;1662763;85;21509;-71
2021/09/19 05:41:17;;;;;;;7.62;5.50;;;;;;;12.97;100.00;98235.63;1659873;85;20893;-73
2021/09/19 05:43:45;;;;;;;9.05;5.92;;;;;;;13.03;100.00;98234.13;1662594;85;21402;-71
2021/09/19 05:46:16;;;;;;;9.15;5.95;;;;;;;13.06;100.00;98232.25;1650629;85;20902;-73
2021/09/19 05:48:43;;;;;;;6.37;5.37;;;;;;;13.11;100.00;98230.78;1632637;86;20951;-73
2021/09/19 05:51:11;;;;;;;10.15;5.92;;;;;;;13.15;100.00;98224.02;1646891;85;21128;-73
2021/09/19 05:53:39;;;;;;;6.08;5.47;;;;;;;13.21;100.00;98218.56;1634447;86;20919;-74
2021/09/19 05:56:06;;;;;;;7.53;5.62;;;;;;;13.29;100.00;98227.63;1634811;86;21458;-72
2021/09/19 05:58:36;;;;;;;7.55;6.53;;;;;;;13.36;100.00;98224.32;1624428;88;21036;-67
2021/09/19 06:01:05;;;;;;;7.72;5.97;;;;;;;13.42;100.00;98218.37;1618611;86;21437;-73
2021/09/19 06:03:33;;;;;;;9.20;5.95;;;;;;;13.52;100.00;98224.23;1621529;85;21967;-71
2021/09/19 06:06:01;;;;;;;10.32;6.65;;;;;;;13.62;100.00;98234.07;1636017;87;21455;-75
2021/09/19 06:08:29;;;;;;;9.10;6.42;;;;;;;13.72;100.00;98228.91;1653014;86;20896;-74
2021/09/19 06:10:57;;;;;;;8.53;6.50;;;;;;;13.83;100.00;98218.34;1660665;86;20963;-73
2021/09/19 06:13:28;;;;;;;9.78;6.60;;;;;;;13.93;100.00;98214.92;1666464;84;21441;-67
2021/09/19 06:15:56;;;;;;;8.48;5.95;;;;;;;14.02;100.00;98212.41;1665226;84;21818;-69
2021/09/19 06:18:28;;;;;;;10.03;5.85;;;;;;;14.11;100.00;98215.60;1664029;86;21509;-67
2021/09/19 06:20:54;;;;;;;15.18;6.45;;;;;;;14.16;100.00;98220.28;1638388;85;21459;-74
2021/09/19 06:23:22;;;;;;;9.98;6.72;;;;;;;14.19;100.00;98219.34;1652907;85;20911;-65
2021/09/19 06:25:51;;;;;;;10.63;6.50;;;;;;;14.23;100.00;98222.75;1661566;85;20904;-68
2021/09/19 06:28:19;;;;;;;7.33;6.00;;;;;;;14.27;100.00;98229.22;1662563;86;21771;-68
2021/09/19 06:30:46;;;;;;;7.67;6.03;;;;;;;14.32;100.00;98221.09;1661919;85;20951;-67
2021/09/19 06:33:16;;;;;;;8.50;6.70;;;;;;;14.36;100.00;98224.05;1641224;87;20965;-73
2021/09/19 06:35:44;;;;;;;11.90;7.47;;;;;;;14.40;100.00;98225.66;1630598;86;20961;-72
2021/09/19 06:38:17;;;;;;;9.63;7.12;;;;;;;14.43;100.00;98222.93;1663979;86;20951;-78
2021/09/19 06:40:46;;;;;;;14.80;6.42;;;;;;;14.49;100.00;98221.38;1665017;85;20936;-77
2021/09/19 06:43:15;;;;;;;16.27;6.40;;;;;;;14.57;100.00;98216.66;1665441;85;21459;-67
2021/09/19 06:45:42;;;;;;;7.15;6.05;;;;;;;14.69;100.00;98214.91;1643503;85;21467;-73
2021/09/19 06:48:11;;;;;;;9.05;6.20;;;;;;;14.81;100.00;98216.23;1639789;85;21508;-73
2021/09/19 06:50:38;;;;;;;11.88;6.40;;;;;;;14.93;100.00;98209.58;1638529;85;20925;-77
2021/09/19 06:53:07;;;;;;;14.20;6.42;;;;;;;15.01;100.00;98216.33;1638254;87;23084;-78
2021/09/19 06:55:35;;;;;;;10.85;6.85;;;;;;;15.07;100.00;98209.91;1642421;85;21042;-78
2021/09/19 06:58:03;;;;;;;12.23;6.47;;;;;;;15.09;100.00;98206.73;1659495;85;20938;-79
2021/09/19 07:00:30;;;;;;;6.85;5.00;;;;;;;15.11;100.00;98195.58;1664571;86;21030;-77
2021/09/19 07:02:58;;;;;;;9.73;5.70;;;;;;;15.17;100.00;98205.13;1654419;85;21022;-78
2021/09/19 07:05:25;;;;;;;15.23;6.95;;;;;;;15.20;100.00;98209.86;1632647;86;21072;-78
2021/09/19 07:07:52;;;;;;;8.55;6.05;;;;;;;15.24;100.00;98195.53;1631295;87;20903;-78
2021/09/19 07:10:22;;;;;;;22.80;5.97;;;;;;;15.31;100.00;98200.13;1631280;87;20971;-77
2021/09/19 07:12:49;;;;;;;8.08;5.87;;;;;;;15.37;100.00;98191.45;1633433;86;20939;-77
2021/09/19 07:15:36;;;;;;;5.72;4.95;;;;;;;15.42;100.00;98193.91;1636986;85;20960;-77
2021/09/19 07:18:04;;;;;;;9.10;6.00;;;;;;;15.48;100.00;98197.66;1599926;88;21160;-77
2021/09/19 07:20:31;;;;;;;15.58;6.15;;;;;;;15.57;100.00;98199.93;1632310;86;21019;-80
2021/09/19 07:23:00;;;;;;;7.78;6.05;;;;;;;15.62;100.00;98200.67;1634458;86;20936;-78
2021/09/19 07:25:29;;;;;;;6.28;5.45;;;;;;;15.66;100.00;98200.94;1600582;88;21657;-80
2021/09/19 07:28:03;;;;;;;7.67;5.55;;;;;;;15.71;100.00;98204.27;1611938;87;21013;-80
2021/09/19 07:30:30;;;;;;;8.70;6.00;;;;;;;15.75;100.00;98198.36;1600368;88;21143;-79
2021/09/19 07:32:58;;;;;;;11.53;7.30;;;;;;;15.80;100.00;98191.52;1612512;88;21456;-72
2021/09/19 07:35:26;;;;;;;7.33;5.25;;;;;;;15.87;100.00;98196.98;1616628;87;21449;-76
2021/09/19 07:37:54;;;;;;;10.18;5.47;;;;;;;15.95;100.00;98193.52;1633701;86;20939;-77
2021/09/19 07:40:21;;;;;;;6.75;6.05;;;;;;;16.03;100.00;98206.03;1637819;85;21997;-74
2021/09/19 07:42:49;;;;;;;7.58;5.58;;;;;;;16.07;100.00;98198.31;1636104;85;21107;-74
2021/09/19 07:45:18;;;;;;;9.40;5.62;;;;;;;16.09;100.00;98196.48;1636088;86;20983;-75
2021/09/19 07:47:46;;;;;;;8.13;6.28;;;;;;;16.16;100.00;98197.94;1634201;86;20982;-76
2021/09/19 07:50:15;;;;;;;12.82;5.92;;;;;;;16.22;100.00;98199.47;1637565;86;21437;-76
2021/09/19 07:52:45;;;;;;;8.65;6.15;;;;;;;16.42;100.00;98190.59;1629657;86;21530;-73
2021/09/19 07:55:15;;;;;;;9.50;4.95;;;;;;;16.42;100.00;98190.59;1637029;86;21087;-75
2021/09/19 07:57:42;;;;;;;11.85;4.80;;;;;;;16.54;100.00;98196.23;1634236;86;21019;-76
2021/09/19 08:00:10;;;;;;;10.40;5.12;;;;;;;16.63;100.00;98185.66;1631311;86;21042;-75
2021/09/19 08:02:40;;;;;;;8.23;4.90;;;;;;;16.73;100.00;98188.33;1631097;87;21475;-76
2021/09/19 08:05:11;;;;;;;8.83;4.95;;;;;;;16.81;100.00;98186.64;1657730;84;20984;-75
2021/09/19 08:07:40;;;;;;;8.98;4.20;;;;;;;16.92;100.00;98183.01;1638006;85;21493;-75
2021/09/19 08:10:12;;;;;;;4.58;3.67;;;;;;;17.03;100.00;98184.73;1666054;85;20899;-75
2021/09/19 08:12:46;;;;;;;5.12;3.77;;;;;;;17.13;100.00;98174.03;1665640;84;20930;-74
2021/09/19 08:15:14;;;;;;;5.03;3.90;;;;;;;17.20;100.00;98162.60;1644879;85;20940;-74
2021/09/19 08:17:42;;;;;;;6.50;3.37;;;;;;;17.27;100.00;98168.03;1639065;86;20914;-73
2021/09/19 08:20:12;;;;;;;5.08;3.77;;;;;;;17.31;100.00;98161.61;1647745;86;21804;-74
2021/09/19 08:22:40;;;;;;;6.95;3.50;;;;;;;17.34;100.00;98162.79;1662278;84;20959;-70
2021/09/19 08:25:11;;;;;;;7.03;3.02;;;;;;;17.34;100.00;98161.92;1656332;85;21567;-71
2021/09/19 08:27:38;;;;;;;3.40;2.50;;;;;;;17.30;100.00;98152.75;1666037;84;21018;-69
2021/09/19 08:30:09;;;;;;;6.08;3.87;;;;;;;17.34;100.00;98151.27;1662774;85;20963;-68
2021/09/19 08:32:37;;;;;;;5.90;3.52;;;;;;;17.34;100.00;98151.27;1662718;85;21060;-70
2021/09/19 08:35:06;;;;;;;5.30;3.42;;;;;;;17.31;100.00;98145.62;1662903;85;20897;-69
2021/09/19 08:37:34;;;;;;;7.25;3.60;;;;;;;17.31;100.00;98145.62;1660262;84;20899;-70
2021/09/19 08:40:01;;;;;;;22.37;4.47;;;;;;;17.33;100.00;98142.41;1667152;84;21515;-69
2021/09/19 08:42:30;;;;;;;7.75;3.77;;;;;;;17.37;100.00;98145.31;1669540;85;20949;-65
2021/09/19 08:44:58;;;;;;;22.93;3.70;;;;;;;17.42;100.00;98144.61;1641810;84;21244;-69
2021/09/19 08:47:30;;;;;;;7.83;3.70;;;;;;;17.46;100.00;98142.19;1645053;85;21545;-70
2021/09/19 08:49:59;;;;;;;7.70;3.25;;;;;;;17.50;100.00;98134.90;1669318;84;20954;-70
2021/09/19 08:52:30;;;;;;;3.40;3.00;;;;;;;17.52;100.00;98139.25;1642732;85;20925;-69
2021/09/19 08:54:57;;;;;;;7.67;3.20;;;;;;;17.56;100.00;98134.16;1664974;84;20896;-69
2021/09/19 08:57:25;;;;;;;3.47;2.85;;;;;;;17.61;100.00;98141.92;1669645;84;21097;-68
2021/09/19 08:59:54;;;;;;;4.00;3.33;;;;;;;17.61;100.00;98141.45;1666440;84;20939;-68
2021/09/19 09:02:23;;;;;;;5.25;3.20;;;;;;;17.62;100.00;98145.84;1642845;86;33571;-67
2021/09/19 09:04:56;;;;;;;8.80;3.37;;;;;;;17.65;100.00;98142.16;1662868;84;20935;-68
2021/09/19 09:07:24;;;;;;;3.17;2.85;;;;;;;17.63;100.00;98142.23;1634263;85;20959;-68
2021/09/19 09:09:56;;;;;;;9.03;3.15;;;;;;;17.60;100.00;98144.19;1643477;85;21104;-67
2021/09/19 09:12:26;;;;;;;4.92;3.77;;;;;;;17.59;100.00;98140.66;1661699;84;20919;-67
2021/09/19 09:14:55;;;;;;;11.75;5.10;;;;;;;17.58;100.00;98144.27;1665340;84;20930;-68
2021/09/19 09:17:27;;;;;;;7.67;5.40;;;;;;;17.56;100.00;98143.48;1666392;85;20959;-69
2021/09/19 09:19:56;;;;;;;8.05;5.37;;;;;;;17.51;100.00;98153.98;1676470;83;20908;-68
2021/09/19 09:22:29;;;;;;;7.47;6.35;;;;;;;17.46;100.00;98163.52;1692507;83;20933;-68
2021/09/19 09:25:22;;;;;;;9.58;5.62;;;;;;;17.38;100.00;98174.16;1695811;83;20900;-67
2021/09/19 09:27:50;;;;;;;9.18;5.95;;;;;;;17.26;100.00;98178.30;1663131;84;20964;-67
2021/09/19 09:30:25;;;;;;;8.55;6.17;;;;;;;17.13;100.00;98190.48;1655205;85;20860;-67
2021/09/19 09:32:59;;;;;;;8.65;5.05;;;;;;;17.00;100.00;98196.36;1646721;86;20961;-70
2021/09/19 09:35:33;;;;;;;8.68;4.62;;;;;;;16.87;100.00;98201.87;1664546;84;21099;-67
2021/09/19 09:38:03;;;;;;;6.75;4.62;;;;;;;16.58;100.00;98207.64;1656200;85;21523;-70
2021/09/19 09:40:33;;;;;;;8.58;4.45;;;;;;;16.48;100.00;98216.48;1654501;84;20951;-70
2021/09/19 09:43:09;;;;;;;4.50;3.50;;;;;;;16.48;100.00;98216.48;1674071;83;20881;-70
2021/09/19 09:45:39;;;;;;;7.65;4.22;;;;;;;16.42;100.00;98227.40;1673315;84;20917;-68
2021/09/19 09:48:38;;;;;;;4.65;4.00;;;;;;;16.40;100.00;98229.27;1690026;83;21189;-70
2021/09/19 09:51:06;;;;;;;3.77;3.22;;;;;;;16.39;100.00;98232.86;1665104;84;21467;-71
2021/09/19 09:53:36;;;;;;;6.22;4.03;;;;;;;16.36;100.00;98237.84;1666521;84;20899;-72
2021/09/19 09:56:05;;;;;;;6.37;3.67;;;;;;;16.36;100.00;98241.84;1666295;84;20950;-71
2021/09/19 09:58:33;;;;;;;3.20;2.75;;;;;;;16.35;100.00;98238.78;1666287;84;20891;-72
2021/09/19 10:01:01;;;;;;;4.67;2.90;;;;;;;16.33;100.00;98246.44;1665875;84;21043;-71
2021/09/19 10:03:28;;;;;;;2.00;1.80;;;;;;;16.28;100.00;98258.61;1665785;84;20883;-71
2021/09/19 10:05:56;;;;;;;2.75;1.52;;;;;;;16.25;100.00;98256.55;1668706;84;21403;-70
2021/09/19 10:08:24;;;;;;;3.27;1.40;;;;;;;16.16;100.00;98264.46;1669102;83;21452;-70
2021/09/19 10:10:56;;;;;;;1.92;1.30;;;;;;;16.06;100.00;98269.27;1640211;85;21436;-70
2021/09/19 10:13:25;;;;;;;1.80;1.40;;;;;;;16.00;100.00;98270.00;1627583;86;21811;-71
2021/09/19 10:15:57;;;;;;;1.95;1.12;;;;;;;15.93;100.00;98268.06;1647324;86;20951;-70
2021/09/19 10:18:26;;;;;;;3.47;1.70;;;;;;;15.88;100.00;98274.03;1672490;83;20925;-68
2021/09/19 10:20:56;;;;;;;2.98;1.32;;;;;;;15.88;100.00;98266.52;1663071;83;21431;-71
2021/09/19 10:23:30;;;;;;;2.35;1.00;;;;;;;15.86;100.00;98267.91;1622129;85;20949;-67
2021/09/19 10:26:08;;;;;;;2.33;1.30;;;;;;;15.86;100.00;98263.06;1632972;86;21498;-69
2021/09/19 10:28:43;;;;;;;1.47;0.75;;;;;;;15.83;100.00;98261.86;1635098;85;21491;-70
2021/09/19 10:31:20;;;;;;;0.70;0.65;;;;;;;15.83;100.00;98265.84;1644410;85;21463;-71
2021/09/19 10:34:06;;;;;;;2.15;1.20;;;;;;;15.81;100.00;98267.70;1662971;83;21002;-72
2021/09/19 10:36:49;;;;;;;5.08;1.50;;;;;;;15.74;100.00;98261.31;1657515;84;20925;-71
2021/09/19 10:39:31;;;;;;;;;;;;;;;15.67;100.00;98261.63;1666695;84;20955;-71
2021/09/19 10:42:32;;;;;;;2.98;1.30;;;;;;;15.60;100.00;98258.31;1631465;85;20451;-72
2021/09/19 10:45:08;;;;;;;5.28;1.80;;;;;;;15.55;100.00;98265.58;1640537;86;21495;-72
2021/09/19 10:47:47;;;;;;;4.72;1.62;;;;;;;15.48;100.00;98269.41;1667501;84;21446;-71
2021/09/19 10:50:36;;;;;;;3.55;1.20;;;;;;;15.45;100.00;98272.19;1638037;86;20917;-70
2021/09/19 10:53:17;;;;;;;3.02;1.20;;;;;;;15.43;100.00;98272.72;1669727;84;21436;-72
2021/09/19 10:56:02;;;;;;;4.47;1.85;;;;;;;15.39;100.00;98268.45;1636286;86;20869;-70
2021/09/19 10:58:34;;;;;;;1.17;0.72;;;;;;;15.35;100.00;98275.67;1636838;87;21444;-71
2021/09/19 11:01:15;;;;;;;2.17;0.60;;;;;;;15.30;100.00;98287.41;1664426;85;22018;-71
2021/09/19 11:03:47;;;;;;;0.47;0.47;;;;;;;15.24;100.00;98290.30;1664104;85;20976;-69
2021/09/19 11:06:25;;;;;;;0.85;0.60;;;;;;;15.13;100.00;98284.05;1644422;85;20916;-71
2021/09/19 11:08:52;;;;;;;0.62;0.50;;;;;;;15.05;100.00;98283.47;1645392;84;20979;-71
2021/09/19 11:11:24;;;;;;;2.75;0.47;;;;;;;14.98;100.00;98278.85;1649112;86;20960;-70
2021/09/19 11:13:55;;;;;;;2.47;0.53;;;;;;;14.94;100.00;98284.34;1646714;85;21030;-70
2021/09/19 11:16:37;;;;;;;0.78;0.50;;;;;;;14.90;100.00;98286.24;1660179;84;21074;-72
2021/09/19 11:19:07;;;;;;;3.65;0.90;;;;;;;14.86;100.00;98286.41;1659651;86;20955;-72
2021/09/19 11:21:41;;;;;;;0.60;0.60;;;;;;;14.77;100.00;98284.50;1624750;86;21574;-72
2021/09/19 11:24:15;;;;;;;1.65;0.60;;;;;;;14.73;100.00;98287.33;1605253;88;20968;-72
2021/09/19 11:26:47;;;;;;;1.15;0.40;;;;;;;14.70;100.00;98290.96;1619892;86;21471;-72
2021/09/19 11:29:25;;;;;;;0.65;0.47;;;;;;;14.62;100.00;98292.13;1621606;86;20927;-72
2021/09/19 11:32:00;;;;;;;0.95;0.40;;;;;;;14.51;100.00;98285.87;1651628;85;21508;-72
2021/09/19 11:34:28;;;;;;;0.70;0.45;;;;;;;14.45;100.00;98287.42;1653814;83;21481;-71
2021/09/19 11:36:59;;;;;;;0.50;0.40;;;;;;;14.42;100.00;98283.09;1668909;83;20979;-70